sensor_id;sensor_type;location;lat;lon;timestamp;pressure;altitude;pressure_sealevel;temperature;humidity
6680;BME280;3376;42.664;23.346;2023-02-14T00:00:30;95928.09;;;4.85;78.47
6680;BME280;3376;42.664;23.346;2023-02-14T00:02:57;95924.50;;;4.88;77.39
6680;BME280;3376;42.664;23.346;2023-02-14T00:05:23;95930.47;;;4.88;74.85
6680;BME280;3376;42.664;23.346;2023-02-14T00:07:50;95926.53;;;4.59;76.13
6680;BME280;3376;42.664;23.346;2023-02-14T00:10:17;95925.50;;;4.24;78.53
6680;BME280;3376;42.664;23.346;2023-02-14T00:12:44;95913.72;;;4.09;78.84
6680;BME280;3376;42.664;23.346;2023-02-14T00:15:12;95909.09;;;3.89;79.27
6680;BME280;3376;42.664;23.346;2023-02-14T00:17:47;95929.19;;;3.95;79.34
6680;BME280;3376;42.664;23.346;2023-02-14T00:20:13;95896.06;;;3.67;80.21
6680;BME280;3376;42.664;23.346;2023-02-14T00:22:40;95919.66;;;3.72;80.59
6680;BME280;3376;42.664;23.346;2023-02-14T00:25:07;95929.38;;;3.67;81.11
6680;BME280;3376;42.664;23.346;2023-02-14T00:27:34;95920.59;;;3.56;81.55
6680;BME280;3376;42.664;23.346;2023-02-14T00:30:00;95913.75;;;3.44;82.50
6680;BME280;3376;42.664;23.346;2023-02-14T00:32:29;95924.09;;;3.55;82.73
6680;BME280;3376;42.664;23.346;2023-02-14T00:34:56;95914.69;;;3.56;83.19
6680;BME280;3376;42.664;23.346;2023-02-14T00:37:23;95909.88;;;3.64;82.98
6680;BME280;3376;42.664;23.346;2023-02-14T00:39:50;95907.53;;;3.61;83.88
6680;BME280;3376;42.664;23.346;2023-02-14T00:42:16;95925.25;;;3.64;83.77
6680;BME280;3376;42.664;23.346;2023-02-14T00:44:43;95915.72;;;3.66;83.57
6680;BME280;3376;42.664;23.346;2023-02-14T00:47:10;95905.28;;;3.69;84.54
6680;BME280;3376;42.664;23.346;2023-02-14T00:49:38;95912.06;;;3.70;83.93
6680;BME280;3376;42.664;23.346;2023-02-14T00:52:05;95904.69;;;3.78;82.53
6680;BME280;3376;42.664;23.346;2023-02-14T00:54:31;95905.59;;;3.77;82.22
6680;BME280;3376;42.664;23.346;2023-02-14T00:56:58;95908.25;;;3.76;83.38
6680;BME280;3376;42.664;23.346;2023-02-14T00:59:25;95903.34;;;3.73;83.45
6680;BME280;3376;42.664;23.346;2023-02-14T01:01:52;95894.03;;;3.72;83.28
6680;BME280;3376;42.664;23.346;2023-02-14T01:04:18;95882.09;;;3.71;82.20
6680;BME280;3376;42.664;23.346;2023-02-14T01:06:46;95891.25;;;3.75;83.32
6680;BME280;3376;42.664;23.346;2023-02-14T01:09:13;95885.63;;;3.82;82.86
6680;BME280;3376;42.664;23.346;2023-02-14T01:11:40;95887.34;;;3.69;83.12
6680;BME280;3376;42.664;23.346;2023-02-14T01:14:06;95892.88;;;3.63;83.42
6680;BME280;3376;42.664;23.346;2023-02-14T01:16:33;95890.41;;;3.62;82.75
6680;BME280;3376;42.664;23.346;2023-02-14T01:19:00;95888.88;;;3.59;83.94
6680;BME280;3376;42.664;23.346;2023-02-14T01:21:29;95852.38;;;3.55;83.74
6680;BME280;3376;42.664;23.346;2023-02-14T01:24:00;95866.50;;;3.48;83.64
6680;BME280;3376;42.664;23.346;2023-02-14T01:26:27;95879.09;;;3.51;83.72
6680;BME280;3376;42.664;23.346;2023-02-14T01:28:54;95861.28;;;3.50;84.34
6680;BME280;3376;42.664;23.346;2023-02-14T01:31:24;95804.97;;;3.11;84.61
6680;BME280;3376;42.664;23.346;2023-02-14T01:33:52;95867.28;;;3.36;84.33
6680;BME280;3376;42.664;23.346;2023-02-14T01:36:20;95869.59;;;3.41;84.90
6680;BME280;3376;42.664;23.346;2023-02-14T01:38:50;95860.03;;;3.43;85.44
6680;BME280;3376;42.664;23.346;2023-02-14T01:41:18;95848.69;;;3.47;85.44
6680;BME280;3376;42.664;23.346;2023-02-14T01:43:54;95843.56;;;3.47;84.95
6680;BME280;3376;42.664;23.346;2023-02-14T01:46:22;95840.50;;;3.54;84.41
6680;BME280;3376;42.664;23.346;2023-02-14T01:48:49;95846.25;;;3.58;84.28
6680;BME280;3376;42.664;23.346;2023-02-14T01:51:17;95833.72;;;3.53;83.18
6680;BME280;3376;42.664;23.346;2023-02-14T01:53:46;95812.09;;;3.32;84.48
6680;BME280;3376;42.664;23.346;2023-02-14T01:56:20;95832.91;;;3.40;84.50
6680;BME280;3376;42.664;23.346;2023-02-14T01:58:49;95835.25;;;3.43;84.77
6680;BME280;3376;42.664;23.346;2023-02-14T02:01:17;95677.69;;;2.36;83.66
6680;BME280;3376;42.664;23.346;2023-02-14T02:03:49;95829.81;;;3.35;84.67
6680;BME280;3376;42.664;23.346;2023-02-14T02:06:19;95833.22;;;3.36;85.48
6680;BME280;3376;42.664;23.346;2023-02-14T02:08:51;95829.41;;;3.41;84.66
6680;BME280;3376;42.664;23.346;2023-02-14T02:11:21;95825.41;;;3.37;83.66
6680;BME280;3376;42.664;23.346;2023-02-14T02:13:48;95834.41;;;3.43;83.98
6680;BME280;3376;42.664;23.346;2023-02-14T02:16:23;95837.50;;;3.48;83.99
6680;BME280;3376;42.664;23.346;2023-02-14T02:19:04;95766.69;;;3.09;83.80
6680;BME280;3376;42.664;23.346;2023-02-14T02:22:00;95833.94;;;3.50;83.62
6680;BME280;3376;42.664;23.346;2023-02-14T02:24:33;95815.88;;;3.39;84.62
6680;BME280;3376;42.664;23.346;2023-02-14T02:27:43;95827.97;;;3.37;84.01
6680;BME280;3376;42.664;23.346;2023-02-14T02:30:38;95819.78;;;3.32;84.27
6680;BME280;3376;42.664;23.346;2023-02-14T02:33:32;95796.13;;;3.29;85.38
6680;BME280;3376;42.664;23.346;2023-02-14T02:36:22;95805.63;;;3.39;83.92
6680;BME280;3376;42.664;23.346;2023-02-14T02:39:03;95781.44;;;3.18;85.10
6680;BME280;3376;42.664;23.346;2023-02-14T02:41:42;95731.97;;;3.05;84.85
6680;BME280;3376;42.664;23.346;2023-02-14T02:44:16;95789.22;;;3.29;85.55
6680;BME280;3376;42.664;23.346;2023-02-14T02:46:51;95788.63;;;3.38;84.29
6680;BME280;3376;42.664;23.346;2023-02-14T02:49:31;95792.31;;;3.34;84.18
6680;BME280;3376;42.664;23.346;2023-02-14T02:52:24;95786.50;;;3.32;85.42
6680;BME280;3376;42.664;23.346;2023-02-14T02:55:14;95631.88;;;2.33;84.57
6680;BME280;3376;42.664;23.346;2023-02-14T02:57:44;95793.97;;;3.35;83.83
6680;BME280;3376;42.664;23.346;2023-02-14T03:00:12;95790.25;;;3.39;83.81
6680;BME280;3376;42.664;23.346;2023-02-14T03:02:45;95795.19;;;3.42;83.04
6680;BME280;3376;42.664;23.346;2023-02-14T03:05:31;95797.25;;;3.37;83.53
6680;BME280;3376;42.664;23.346;2023-02-14T03:08:01;95800.50;;;3.39;83.96
6680;BME280;3376;42.664;23.346;2023-02-14T03:10:32;95652.38;;;2.58;83.58
6680;BME280;3376;42.664;23.346;2023-02-14T03:16:32;95801.94;;;3.31;83.89
6680;BME280;3376;42.664;23.346;2023-02-14T03:19:11;95805.31;;;3.31;84.60
6680;BME280;3376;42.664;23.346;2023-02-14T03:21:45;95790.47;;;3.36;84.41
6680;BME280;3376;42.664;23.346;2023-02-14T03:24:22;95782.06;;;3.34;83.54
6680;BME280;3376;42.664;23.346;2023-02-14T03:26:55;95787.41;;;3.44;83.75
6680;BME280;3376;42.664;23.346;2023-02-14T03:29:28;95789.84;;;3.33;84.39
6680;BME280;3376;42.664;23.346;2023-02-14T03:31:59;95771.81;;;3.34;83.94
6680;BME280;3376;42.664;23.346;2023-02-14T03:34:31;95767.31;;;3.38;83.51
6680;BME280;3376;42.664;23.346;2023-02-14T03:37:05;95769.78;;;3.39;84.39
6680;BME280;3376;42.664;23.346;2023-02-14T03:39:39;95758.41;;;3.43;83.43
6680;BME280;3376;42.664;23.346;2023-02-14T03:42:11;95769.78;;;3.39;83.02
6680;BME280;3376;42.664;23.346;2023-02-14T03:44:41;95765.28;;;3.30;83.29
6680;BME280;3376;42.664;23.346;2023-02-14T03:47:10;95766.81;;;3.33;83.83
6680;BME280;3376;42.664;23.346;2023-02-14T03:49:42;95745.72;;;3.17;84.30
6680;BME280;3376;42.664;23.346;2023-02-14T03:52:10;95761.38;;;3.25;84.78
6680;BME280;3376;42.664;23.346;2023-02-14T03:54:39;95762.38;;;3.22;83.04
6680;BME280;3376;42.664;23.346;2023-02-14T03:57:11;95753.19;;;3.20;83.56
6680;BME280;3376;42.664;23.346;2023-02-14T03:59:41;95749.06;;;3.17;82.98
6680;BME280;3376;42.664;23.346;2023-02-14T04:02:10;95715.19;;;3.01;83.93
6680;BME280;3376;42.664;23.346;2023-02-14T04:04:43;95735.97;;;3.09;83.99
6680;BME280;3376;42.664;23.346;2023-02-14T04:07:12;95731.06;;;3.06;84.68
6680;BME280;3376;42.664;23.346;2023-02-14T04:09:41;95626.16;;;2.42;85.55
6680;BME280;3376;42.664;23.346;2023-02-14T04:12:08;95733.72;;;3.05;84.24
6680;BME280;3376;42.664;23.346;2023-02-14T04:14:36;95729.19;;;2.96;84.85
6680;BME280;3376;42.664;23.346;2023-02-14T04:17:03;95716.28;;;2.97;86.26
6680;BME280;3376;42.664;23.346;2023-02-14T04:19:48;95742.28;;;3.04;84.08
6680;BME280;3376;42.664;23.346;2023-02-14T04:22:14;95746.19;;;3.09;84.14
6680;BME280;3376;42.664;23.346;2023-02-14T04:24:44;95747.13;;;3.08;84.01
6680;BME280;3376;42.664;23.346;2023-02-14T04:27:10;95748.44;;;3.01;84.74
6680;BME280;3376;42.664;23.346;2023-02-14T04:29:39;95621.09;;;2.15;83.93
6680;BME280;3376;42.664;23.346;2023-02-14T04:32:07;95742.91;;;3.07;84.15
6680;BME280;3376;42.664;23.346;2023-02-14T04:34:34;95752.16;;;3.10;83.16
6680;BME280;3376;42.664;23.346;2023-02-14T04:37:02;95746.31;;;3.08;83.76
6680;BME280;3376;42.664;23.346;2023-02-14T04:39:29;95742.44;;;3.15;84.57
6680;BME280;3376;42.664;23.346;2023-02-14T04:41:57;95748.28;;;3.17;83.48
6680;BME280;3376;42.664;23.346;2023-02-14T04:44:24;95717.13;;;3.10;83.68
6680;BME280;3376;42.664;23.346;2023-02-14T04:46:52;95730.47;;;3.15;83.12
6680;BME280;3376;42.664;23.346;2023-02-14T04:49:19;95719.38;;;3.02;84.71
6680;BME280;3376;42.664;23.346;2023-02-14T04:51:46;95721.94;;;3.02;82.57
6680;BME280;3376;42.664;23.346;2023-02-14T04:54:13;95720.09;;;3.04;83.22
6680;BME280;3376;42.664;23.346;2023-02-14T04:56:40;95695.50;;;2.89;83.84
6680;BME280;3376;42.664;23.346;2023-02-14T04:59:08;95713.88;;;3.08;83.42
6680;BME280;3376;42.664;23.346;2023-02-14T05:01:35;95710.97;;;3.00;83.19
6680;BME280;3376;42.664;23.346;2023-02-14T05:04:02;95716.28;;;2.97;84.15
6680;BME280;3376;42.664;23.346;2023-02-14T05:06:28;95727.34;;;2.98;83.74
6680;BME280;3376;42.664;23.346;2023-02-14T05:08:55;95702.97;;;2.92;83.69
6680;BME280;3376;42.664;23.346;2023-02-14T05:11:22;95662.63;;;2.58;83.25
6680;BME280;3376;42.664;23.346;2023-02-14T05:13:49;95548.78;;;1.88;83.78
6680;BME280;3376;42.664;23.346;2023-02-14T05:16:17;95708.22;;;3.03;83.01
6680;BME280;3376;42.664;23.346;2023-02-14T05:18:44;95724.72;;;3.12;81.95
6680;BME280;3376;42.664;23.346;2023-02-14T05:21:11;95726.66;;;3.08;83.39
6680;BME280;3376;42.664;23.346;2023-02-14T05:23:38;95725.13;;;3.18;82.60
6680;BME280;3376;42.664;23.346;2023-02-14T05:26:05;95715.41;;;3.23;82.79
6680;BME280;3376;42.664;23.346;2023-02-14T05:28:32;95715.41;;;3.23;82.47
6680;BME280;3376;42.664;23.346;2023-02-14T05:30:59;95708.13;;;3.42;83.88
6680;BME280;3376;42.664;23.346;2023-02-14T05:33:27;95719.69;;;3.48;84.38
6680;BME280;3376;42.664;23.346;2023-02-14T05:35:54;95699.72;;;3.40;82.98
6680;BME280;3376;42.664;23.346;2023-02-14T05:38:20;95711.16;;;3.73;100.00
6680;BME280;3376;42.664;23.346;2023-02-14T05:40:47;95716.28;;;3.73;83.18
6680;BME280;3376;42.664;23.346;2023-02-14T05:43:14;95708.53;;;3.62;83.25
6680;BME280;3376;42.664;23.346;2023-02-14T05:45:41;95721.63;;;3.57;82.39
6680;BME280;3376;42.664;23.346;2023-02-14T05:48:07;95710.25;;;3.48;81.95
6680;BME280;3376;42.664;23.346;2023-02-14T05:50:36;95713.66;;;3.49;81.53
6680;BME280;3376;42.664;23.346;2023-02-14T05:53:02;95680.47;;;3.35;81.26
6680;BME280;3376;42.664;23.346;2023-02-14T05:55:30;95722.03;;;3.63;81.10
6680;BME280;3376;42.664;23.346;2023-02-14T05:57:57;95721.41;;;3.60;81.71
6680;BME280;3376;42.664;23.346;2023-02-14T06:00:24;95718.22;;;3.56;81.62
6680;BME280;3376;42.664;23.346;2023-02-14T06:02:50;95698.16;;;3.50;83.09
6680;BME280;3376;42.664;23.346;2023-02-14T06:05:17;95711.78;;;3.63;82.35
6680;BME280;3376;42.664;23.346;2023-02-14T06:07:47;95714.44;;;3.75;80.26
6680;BME280;3376;42.664;23.346;2023-02-14T06:10:15;95707.06;;;3.70;80.53
6680;BME280;3376;42.664;23.346;2023-02-14T06:12:42;95739.00;;;3.77;80.21
6680;BME280;3376;42.664;23.346;2023-02-14T06:15:09;95734.50;;;3.81;80.52
6680;BME280;3376;42.664;23.346;2023-02-14T06:17:36;95738.00;;;3.80;80.14
6680;BME280;3376;42.664;23.346;2023-02-14T06:20:04;95696.72;;;3.59;80.32
6680;BME280;3376;42.664;23.346;2023-02-14T06:22:31;95727.41;;;3.97;80.76
6680;BME280;3376;42.664;23.346;2023-02-14T06:24:59;95733.91;;;4.13;79.54
6680;BME280;3376;42.664;23.346;2023-02-14T06:27:27;95742.03;;;4.20;77.40
6680;BME280;3376;42.664;23.346;2023-02-14T06:29:54;95736.94;;;4.31;77.57
6680;BME280;3376;42.664;23.346;2023-02-14T06:32:21;95729.97;;;4.33;77.09
6680;BME280;3376;42.664;23.346;2023-02-14T06:34:48;95722.97;;;4.35;77.84
6680;BME280;3376;42.664;23.346;2023-02-14T06:37:15;95733.53;;;4.30;76.70
6680;BME280;3376;42.664;23.346;2023-02-14T06:39:41;95730.19;;;4.30;78.02
6680;BME280;3376;42.664;23.346;2023-02-14T06:42:09;95715.59;;;4.30;77.20
6680;BME280;3376;42.664;23.346;2023-02-14T06:44:36;95738.88;;;4.40;77.87
6680;BME280;3376;42.664;23.346;2023-02-14T06:47:03;95724.72;;;4.58;76.89
6680;BME280;3376;42.664;23.346;2023-02-14T06:49:30;95731.34;;;4.73;76.37
6680;BME280;3376;42.664;23.346;2023-02-14T06:51:57;95726.41;;;4.70;76.05
6680;BME280;3376;42.664;23.346;2023-02-14T06:54:23;95706.47;;;4.73;77.19
6680;BME280;3376;42.664;23.346;2023-02-14T06:56:50;95724.72;;;4.58;76.16
6680;BME280;3376;42.664;23.346;2023-02-14T06:59:18;95721.94;;;4.61;77.38
6680;BME280;3376;42.664;23.346;2023-02-14T07:01:45;95720.00;;;4.75;77.12
6680;BME280;3376;42.664;23.346;2023-02-14T07:04:12;95725.38;;;4.72;76.88
6680;BME280;3376;42.664;23.346;2023-02-14T07:06:38;95721.72;;;4.64;77.33
6680;BME280;3376;42.664;23.346;2023-02-14T07:09:05;95704.91;;;4.60;77.79
6680;BME280;3376;42.664;23.346;2023-02-14T07:11:32;95696.28;;;4.61;78.57
6680;BME280;3376;42.664;23.346;2023-02-14T07:13:59;95680.25;;;4.46;77.93
6680;BME280;3376;42.664;23.346;2023-02-14T07:16:27;95713.31;;;4.62;78.38
6680;BME280;3376;42.664;23.346;2023-02-14T07:18:54;95716.81;;;4.61;79.37
6680;BME280;3376;42.664;23.346;2023-02-14T07:21:21;95710.19;;;4.46;79.12
6680;BME280;3376;42.664;23.346;2023-02-14T07:23:47;95702.72;;;4.43;80.75
6680;BME280;3376;42.664;23.346;2023-02-14T07:26:14;95711.38;;;4.42;80.97
6680;BME280;3376;42.664;23.346;2023-02-14T07:28:43;95702.25;;;4.38;82.32
6680;BME280;3376;42.664;23.346;2023-02-14T07:31:10;95699.03;;;4.23;82.96
6680;BME280;3376;42.664;23.346;2023-02-14T07:33:38;95718.38;;;4.27;84.71
6680;BME280;3376;42.664;23.346;2023-02-14T07:36:05;95707.03;;;4.19;86.08
6680;BME280;3376;42.664;23.346;2023-02-14T07:38:32;95715.56;;;4.19;86.75
6680;BME280;3376;42.664;23.346;2023-02-14T07:41:00;95719.31;;;4.26;87.38
6680;BME280;3376;42.664;23.346;2023-02-14T07:43:27;95731.75;;;4.20;87.21
6680;BME280;3376;42.664;23.346;2023-02-14T07:45:53;95703.31;;;3.99;88.12
6680;BME280;3376;42.664;23.346;2023-02-14T07:48:20;95740.09;;;4.11;90.60
6680;BME280;3376;42.664;23.346;2023-02-14T07:50:48;95727.06;;;4.01;90.22
6680;BME280;3376;42.664;23.346;2023-02-14T07:53:15;95714.47;;;3.98;92.08
6680;BME280;3376;42.664;23.346;2023-02-14T07:55:42;95737.13;;;4.04;92.09
6680;BME280;3376;42.664;23.346;2023-02-14T07:58:09;95734.47;;;4.06;91.93
6680;BME280;3376;42.664;23.346;2023-02-14T08:00:35;95739.00;;;4.02;93.79
6680;BME280;3376;42.664;23.346;2023-02-14T08:03:02;95747.19;;;3.95;93.61
6680;BME280;3376;42.664;23.346;2023-02-14T08:05:29;95745.53;;;4.06;92.76
6680;BME280;3376;42.664;23.346;2023-02-14T08:07:57;95713.97;;;3.93;93.67
6680;BME280;3376;42.664;23.346;2023-02-14T08:10:24;95754.47;;;4.01;94.18
6680;BME280;3376;42.664;23.346;2023-02-14T08:12:50;95756.94;;;4.02;93.50
6680;BME280;3376;42.664;23.346;2023-02-14T08:15:29;95590.25;;;3.19;93.87
6680;BME280;3376;42.664;23.346;2023-02-14T08:18:13;95754.09;;;3.94;92.81
6680;BME280;3376;42.664;23.346;2023-02-14T08:20:40;95767.19;;;3.90;96.06
6680;BME280;3376;42.664;23.346;2023-02-14T08:23:08;95749.38;;;3.88;94.42
6680;BME280;3376;42.664;23.346;2023-02-14T08:25:35;95753.78;;;3.86;95.47
6680;BME280;3376;42.664;23.346;2023-02-14T08:28:02;95757.50;;;3.82;96.17
6680;BME280;3376;42.664;23.346;2023-02-14T08:30:30;95737.91;;;3.69;95.83
6680;BME280;3376;42.664;23.346;2023-02-14T08:32:56;95625.41;;;3.17;95.83
6680;BME280;3376;42.664;23.346;2023-02-14T08:35:23;95741.56;;;4.02;92.90
6680;BME280;3376;42.664;23.346;2023-02-14T08:37:50;95745.75;;;4.03;93.86
6680;BME280;3376;42.664;23.346;2023-02-14T08:40:18;95749.63;;;4.09;94.01
6680;BME280;3376;42.664;23.346;2023-02-14T08:42:45;95740.59;;;4.16;92.92
6680;BME280;3376;42.664;23.346;2023-02-14T08:45:12;95738.75;;;4.18;91.24
6680;BME280;3376;42.664;23.346;2023-02-14T08:47:39;95754.00;;;4.19;92.24
6680;BME280;3376;42.664;23.346;2023-02-14T08:50:08;95760.38;;;4.14;93.47
6680;BME280;3376;42.664;23.346;2023-02-14T08:52:35;95747.41;;;4.04;94.77
6680;BME280;3376;42.664;23.346;2023-02-14T08:55:04;95725.16;;;3.92;93.82
6680;BME280;3376;42.664;23.346;2023-02-14T08:57:33;95762.72;;;4.17;94.22
6680;BME280;3376;42.664;23.346;2023-02-14T08:59:59;95759.28;;;4.05;95.03
6680;BME280;3376;42.664;23.346;2023-02-14T09:02:26;95762.66;;;4.06;95.38
6680;BME280;3376;42.664;23.346;2023-02-14T09:04:53;95759.16;;;4.07;95.01
6680;BME280;3376;42.664;23.346;2023-02-14T09:07:20;95758.66;;;4.14;95.70
6680;BME280;3376;42.664;23.346;2023-02-14T09:09:47;95730.97;;;4.07;97.49
6680;BME280;3376;42.664;23.346;2023-02-14T09:12:14;95744.94;;;4.03;95.89
6680;BME280;3376;42.664;23.346;2023-02-14T09:14:43;95731.59;;;3.98;96.84
6680;BME280;3376;42.664;23.346;2023-02-14T09:17:10;95736.19;;;4.05;95.91
6680;BME280;3376;42.664;23.346;2023-02-14T09:19:37;95723.00;;;3.99;95.93
6680;BME280;3376;42.664;23.346;2023-02-14T09:22:04;95689.75;;;3.74;95.88
6680;BME280;3376;42.664;23.346;2023-02-14T09:24:32;95732.53;;;3.97;95.99
6680;BME280;3376;42.664;23.346;2023-02-14T09:27:00;95735.72;;;4.00;97.89
6680;BME280;3376;42.664;23.346;2023-02-14T09:29:28;95737.09;;;4.17;95.82
6680;BME280;3376;42.664;23.346;2023-02-14T09:31:58;95727.31;;;4.22;95.90
6680;BME280;3376;42.664;23.346;2023-02-14T09:34:25;95732.19;;;4.14;95.33
6680;BME280;3376;42.664;23.346;2023-02-14T09:36:52;95725.94;;;4.05;93.91
6680;BME280;3376;42.664;23.346;2023-02-14T09:39:37;95724.00;;;4.09;95.42
6680;BME280;3376;42.664;23.346;2023-02-14T09:42:14;95735.06;;;4.09;93.98
6680;BME280;3376;42.664;23.346;2023-02-14T09:44:48;95723.50;;;4.04;94.71
6680;BME280;3376;42.664;23.346;2023-02-14T09:47:22;95709.25;;;4.00;94.86
6680;BME280;3376;42.664;23.346;2023-02-14T09:49:57;95730.47;;;4.02;94.07
6680;BME280;3376;42.664;23.346;2023-02-14T09:52:26;95722.78;;;3.89;94.29
6680;BME280;3376;42.664;23.346;2023-02-14T09:54:56;95727.28;;;3.98;93.98
6680;BME280;3376;42.664;23.346;2023-02-14T09:57:34;95712.53;;;4.02;95.66
6680;BME280;3376;42.664;23.346;2023-02-14T10:00:16;95727.28;;;4.11;94.49
6680;BME280;3376;42.664;23.346;2023-02-14T10:02:57;95709.38;;;4.22;92.58
6680;BME280;3376;42.664;23.346;2023-02-14T10:05:28;95699.97;;;4.10;93.50
6680;BME280;3376;42.664;23.346;2023-02-14T10:07:59;95709.19;;;4.25;93.17
6680;BME280;3376;42.664;23.346;2023-02-14T10:10:34;95725.09;;;4.41;92.69
6680;BME280;3376;42.664;23.346;2023-02-14T10:13:06;95699.44;;;4.41;90.31
6680;BME280;3376;42.664;23.346;2023-02-14T10:15:39;95721.44;;;4.56;91.30
6680;BME280;3376;42.664;23.346;2023-02-14T10:18:11;95680.78;;;4.39;88.26
6680;BME280;3376;42.664;23.346;2023-02-14T10:20:41;95679.28;;;4.13;89.36
6680;BME280;3376;42.664;23.346;2023-02-14T10:23:21;95576.66;;;3.54;90.06
6680;BME280;3376;42.664;23.346;2023-02-14T10:25:53;95703.94;;;4.26;91.49
6680;BME280;3376;42.664;23.346;2023-02-14T10:28:28;95698.34;;;4.32;91.25
6680;BME280;3376;42.664;23.346;2023-02-14T10:31:04;95416.50;;;2.55;90.45
6680;BME280;3376;42.664;23.346;2023-02-14T10:33:38;95705.44;;;4.29;89.53
6680;BME280;3376;42.664;23.346;2023-02-14T10:36:13;95676.00;;;4.11;90.01
6680;BME280;3376;42.664;23.346;2023-02-14T10:38:46;95693.34;;;4.31;90.17
6680;BME280;3376;42.664;23.346;2023-02-14T10:41:24;95704.31;;;4.33;89.74
6680;BME280;3376;42.664;23.346;2023-02-14T10:44:03;95695.41;;;4.26;88.72
6680;BME280;3376;42.664;23.346;2023-02-14T10:46:41;95688.44;;;4.28;88.83
6680;BME280;3376;42.664;23.346;2023-02-14T10:49:24;95664.06;;;4.10;88.76
6680;BME280;3376;42.664;23.346;2023-02-14T10:51:56;95693.72;;;4.37;88.94
6680;BME280;3376;42.664;23.346;2023-02-14T10:54:28;95696.81;;;4.06;88.32
6680;BME280;3376;42.664;23.346;2023-02-14T10:56:59;95696.53;;;3.98;89.60
6680;BME280;3376;42.664;23.346;2023-02-14T10:59:31;95697.97;;;4.02;91.25
6680;BME280;3376;42.664;23.346;2023-02-14T11:02:01;95667.84;;;3.93;91.43
6680;BME280;3376;42.664;23.346;2023-02-14T11:04:30;95664.06;;;3.86;91.66
6680;BME280;3376;42.664;23.346;2023-02-14T11:06:57;95659.88;;;3.85;91.85
6680;BME280;3376;42.664;23.346;2023-02-14T11:09:24;95689.78;;;3.97;91.50
6680;BME280;3376;42.664;23.346;2023-02-14T11:11:52;95676.66;;;3.89;90.76
6680;BME280;3376;42.664;23.346;2023-02-14T11:14:23;95687.00;;;4.00;90.01
6680;BME280;3376;42.664;23.346;2023-02-14T11:16:51;95687.16;;;4.10;90.62
6680;BME280;3376;42.664;23.346;2023-02-14T11:19:22;95684.41;;;4.13;88.70
6680;BME280;3376;42.664;23.346;2023-02-14T11:21:52;95680.19;;;4.12;88.87
6680;BME280;3376;42.664;23.346;2023-02-14T11:24:27;95692.81;;;4.15;88.59
6680;BME280;3376;42.664;23.346;2023-02-14T11:26:57;95676.97;;;4.21;88.43
6680;BME280;3376;42.664;23.346;2023-02-14T11:29:27;95683.56;;;4.12;88.16
6680;BME280;3376;42.664;23.346;2023-02-14T11:31:55;95679.28;;;4.13;87.29
6680;BME280;3376;42.664;23.346;2023-02-14T11:34:32;95662.94;;;4.14;87.38
6680;BME280;3376;42.664;23.346;2023-02-14T11:37:02;95666.38;;;4.25;86.64
6680;BME280;3376;42.664;23.346;2023-02-14T11:39:31;95667.53;;;4.21;86.59
6680;BME280;3376;42.664;23.346;2023-02-14T11:42:01;95622.41;;;3.95;85.82
6680;BME280;3376;42.664;23.346;2023-02-14T11:44:31;95522.06;;;3.41;84.99
6680;BME280;3376;42.664;23.346;2023-02-14T11:47:18;95658.88;;;4.35;85.18
6680;BME280;3376;42.664;23.346;2023-02-14T11:49:54;95651.59;;;4.29;84.35
6680;BME280;3376;42.664;23.346;2023-02-14T11:52:23;95616.91;;;4.12;82.49
6680;BME280;3376;42.664;23.346;2023-02-14T11:54:54;95627.84;;;4.38;82.29
6680;BME280;3376;42.664;23.346;2023-02-14T11:57:23;95644.88;;;4.39;80.66
6680;BME280;3376;42.664;23.346;2023-02-14T11:59:53;95645.56;;;4.41;80.78
6680;BME280;3376;42.664;23.346;2023-02-14T12:02:27;95619.06;;;4.29;80.89
6680;BME280;3376;42.664;23.346;2023-02-14T12:04:57;95631.44;;;4.35;80.18
6680;BME280;3376;42.664;23.346;2023-02-14T12:07:29;95621.09;;;4.37;81.27
6680;BME280;3376;42.664;23.346;2023-02-14T12:10:17;95640.50;;;4.52;80.84
6680;BME280;3376;42.664;23.346;2023-02-14T12:12:55;95612.16;;;4.53;80.37
6680;BME280;3376;42.664;23.346;2023-02-14T12:15:32;95628.00;;;4.47;80.30
6680;BME280;3376;42.664;23.346;2023-02-14T12:18:23;95588.25;;;4.42;81.10
6680;BME280;3376;42.664;23.346;2023-02-14T12:20:56;95623.75;;;4.70;80.65
6680;BME280;3376;42.664;23.346;2023-02-14T12:23:34;95624.09;;;4.76;79.34
6680;BME280;3376;42.664;23.346;2023-02-14T12:26:14;95611.63;;;4.72;79.26
6680;BME280;3376;42.664;23.346;2023-02-14T12:28:48;95583.47;;;4.59;79.43
6680;BME280;3376;42.664;23.346;2023-02-14T12:31:17;95606.38;;;4.62;79.90
6680;BME280;3376;42.664;23.346;2023-02-14T12:33:45;95594.59;;;4.82;80.28
6680;BME280;3376;42.664;23.346;2023-02-14T12:36:19;95612.00;;;4.90;80.22
6680;BME280;3376;42.664;23.346;2023-02-14T12:38:59;95588.75;;;4.80;80.26
6680;BME280;3376;42.664;23.346;2023-02-14T12:41:37;95598.69;;;4.96;80.32
6680;BME280;3376;42.664;23.346;2023-02-14T12:44:12;95594.41;;;4.96;78.93
6680;BME280;3376;42.664;23.346;2023-02-14T12:47:11;95603.03;;;5.06;79.03
6680;BME280;3376;42.664;23.346;2023-02-14T12:49:58;95606.28;;;4.97;79.43
6680;BME280;3376;42.664;23.346;2023-02-14T12:52:49;95604.22;;;5.02;78.17
6680;BME280;3376;42.664;23.346;2023-02-14T12:55:32;95601.63;;;4.91;79.49
6680;BME280;3376;42.664;23.346;2023-02-14T12:58:05;95592.78;;;4.95;80.23
6680;BME280;3376;42.664;23.346;2023-02-14T13:00:45;95587.63;;;4.84;79.39
6680;BME280;3376;42.664;23.346;2023-02-14T13:03:38;95600.94;;;5.00;79.05
6680;BME280;3376;42.664;23.346;2023-02-14T13:06:15;95577.81;;;4.89;80.84
6680;BME280;3376;42.664;23.346;2023-02-14T13:09:04;95613.09;;;5.20;79.31
6680;BME280;3376;42.664;23.346;2023-02-14T13:11:43;95590.91;;;5.19;79.31
6680;BME280;3376;42.664;23.346;2023-02-14T13:14:35;95603.06;;;5.17;78.98
6680;BME280;3376;42.664;23.346;2023-02-14T13:17:12;95598.25;;;5.24;79.96
6680;BME280;3376;42.664;23.346;2023-02-14T13:19:45;95584.59;;;5.23;79.41
6680;BME280;3376;42.664;23.346;2023-02-14T13:22:18;95571.06;;;5.10;80.66
6680;BME280;3376;42.664;23.346;2023-02-14T13:24:47;95590.91;;;5.19;79.98
6680;BME280;3376;42.664;23.346;2023-02-14T13:27:20;95583.69;;;5.24;80.26
6680;BME280;3376;42.664;23.346;2023-02-14T13:29:49;95595.81;;;5.22;80.11
6680;BME280;3376;42.664;23.346;2023-02-14T13:32:20;95576.44;;;5.07;81.18
6680;BME280;3376;42.664;23.346;2023-02-14T13:34:49;95587.19;;;5.12;81.15
6680;BME280;3376;42.664;23.346;2023-02-14T13:37:18;95593.94;;;5.24;81.55
6680;BME280;3376;42.664;23.346;2023-02-14T13:39:47;95589.75;;;5.34;80.71
6680;BME280;3376;42.664;23.346;2023-02-14T13:42:50;95593.00;;;5.36;80.54
6680;BME280;3376;42.664;23.346;2023-02-14T13:48:31;95586.00;;;5.16;81.44